sensor_id;sensor_type;location;lat;lon;timestamp;pressure;altitude;pressure_sealevel;temperature;humidity
69219;BME280;56232;53.384;-2.732;2023-03-24T00:00:18;98598.99;;;7.01;39.22
69219;BME280;56232;53.384;-2.732;2023-03-24T00:02:42;98611.72;;;8.13;39.28
69219;BME280;56232;53.384;-2.732;2023-03-24T00:05:08;98618.34;;;7.56;39.07
69219;BME280;56232;53.384;-2.732;2023-03-24T00:07:33;98618.45;;;7.84;38.89
69219;BME280;56232;53.384;-2.732;2023-03-24T00:09:59;98617.45;;;7.51;38.22
69219;BME280;56232;53.384;-2.732;2023-03-24T00:12:25;98622.90;;;7.90;38.39
69219;BME280;56232;53.384;-2.732;2023-03-24T00:14:50;98617.36;;;7.81;38.71
69219;BME280;56232;53.384;-2.732;2023-03-24T00:17:16;98620.16;;;7.75;38.84
69219;BME280;56232;53.384;-2.732;2023-03-24T00:19:42;98609.29;;;7.69;38.48
69219;BME280;56232;53.384;-2.732;2023-03-24T00:22:08;98615.95;;;7.24;38.84
69219;BME280;56232;53.384;-2.732;2023-03-24T00:24:33;98618.57;;;7.76;38.89
69219;BME280;56232;53.384;-2.732;2023-03-24T00:26:59;98618.11;;;7.36;38.64
69219;BME280;56232;53.384;-2.732;2023-03-24T00:29:24;98615.49;;;8.00;38.39
69219;BME280;56232;53.384;-2.732;2023-03-24T00:31:50;98619.36;;;8.01;38.55
69219;BME280;56232;53.384;-2.732;2023-03-24T00:34:15;98612.59;;;7.99;38.20
69219;BME280;56232;53.384;-2.732;2023-03-24T00:36:41;98617.03;;;7.97;38.10
69219;BME280;56232;53.384;-2.732;2023-03-24T00:39:06;98613.59;;;7.40;38.09
69219;BME280;56232;53.384;-2.732;2023-03-24T00:41:31;98621.05;;;7.43;38.46
69219;BME280;56232;53.384;-2.732;2023-03-24T00:43:58;98629.44;;;7.48;38.17
69219;BME280;56232;53.384;-2.732;2023-03-24T00:46:23;98632.26;;;8.05;38.44
69219;BME280;56232;53.384;-2.732;2023-03-24T00:48:48;98632.94;;;8.15;38.25
69219;BME280;56232;53.384;-2.732;2023-03-24T00:51:13;98634.60;;;8.37;37.90
69219;BME280;56232;53.384;-2.732;2023-03-24T00:53:39;98635.89;;;7.93;37.59
69219;BME280;56232;53.384;-2.732;2023-03-24T00:56:05;98633.54;;;7.88;37.85
69219;BME280;56232;53.384;-2.732;2023-03-24T00:58:30;98640.05;;;8.18;37.72
69219;BME280;56232;53.384;-2.732;2023-03-24T01:00:56;98644.48;;;7.84;38.19
69219;BME280;56232;53.384;-2.732;2023-03-24T01:03:22;98647.72;;;7.59;38.04
69219;BME280;56232;53.384;-2.732;2023-03-24T01:05:47;98644.18;;;7.68;38.24
69219;BME280;56232;53.384;-2.732;2023-03-24T01:08:12;98646.35;;;7.57;38.12
69219;BME280;56232;53.384;-2.732;2023-03-24T01:10:38;98655.22;;;7.44;38.51
69219;BME280;56232;53.384;-2.732;2023-03-24T01:13:08;98659.07;;;7.24;38.56
69219;BME280;56232;53.384;-2.732;2023-03-24T01:15:32;98666.54;;;7.22;38.58
69219;BME280;56232;53.384;-2.732;2023-03-24T01:17:55;98656.87;;;7.22;38.67
69219;BME280;56232;53.384;-2.732;2023-03-24T01:20:21;98666.65;;;6.48;38.79
69219;BME280;56232;53.384;-2.732;2023-03-24T01:22:45;98665.75;;;6.80;38.80
69219;BME280;56232;53.384;-2.732;2023-03-24T01:25:12;98674.51;;;7.20;38.86
69219;BME280;56232;53.384;-2.732;2023-03-24T01:27:37;98678.68;;;6.55;38.98
69219;BME280;56232;53.384;-2.732;2023-03-24T01:30:03;98680.44;;;7.01;38.93
69219;BME280;56232;53.384;-2.732;2023-03-24T01:32:28;98679.89;;;6.44;38.74
69219;BME280;56232;53.384;-2.732;2023-03-24T01:34:53;98686.59;;;7.12;38.62
69219;BME280;56232;53.384;-2.732;2023-03-24T01:37:19;98683.35;;;7.22;38.78
69219;BME280;56232;53.384;-2.732;2023-03-24T01:39:45;98680.96;;;7.22;38.66
69219;BME280;56232;53.384;-2.732;2023-03-24T01:42:16;98684.16;;;6.68;38.48
69219;BME280;56232;53.384;-2.732;2023-03-24T01:44:37;98685.94;;;7.49;38.35
69219;BME280;56232;53.384;-2.732;2023-03-24T01:47:05;98689.48;;;7.04;38.00
69219;BME280;56232;53.384;-2.732;2023-03-24T01:49:31;98687.85;;;7.69;38.17
69219;BME280;56232;53.384;-2.732;2023-03-24T01:51:55;98686.09;;;7.14;38.11
69219;BME280;56232;53.384;-2.732;2023-03-24T01:54:21;98693.49;;;7.85;38.00
69219;BME280;56232;53.384;-2.732;2023-03-24T01:56:49;98696.56;;;7.96;37.93
69219;BME280;56232;53.384;-2.732;2023-03-24T01:59:13;98696.70;;;7.28;38.02
69219;BME280;56232;53.384;-2.732;2023-03-24T02:01:36;98698.59;;;7.06;38.25
69219;BME280;56232;53.384;-2.732;2023-03-24T02:04:03;98698.50;;;6.82;38.29
69219;BME280;56232;53.384;-2.732;2023-03-24T02:06:29;98703.18;;;6.67;38.28
69219;BME280;56232;53.384;-2.732;2023-03-24T02:08:54;98704.89;;;6.57;38.64
69219;BME280;56232;53.384;-2.732;2023-03-24T02:11:19;98692.61;;;7.16;38.70
69219;BME280;56232;53.384;-2.732;2023-03-24T02:13:44;98702.49;;;6.49;38.49
69219;BME280;56232;53.384;-2.732;2023-03-24T02:16:20;98695.45;;;7.54;38.47
69219;BME280;56232;53.384;-2.732;2023-03-24T02:18:41;98703.40;;;6.89;38.78
69219;BME280;56232;53.384;-2.732;2023-03-24T02:23:39;98703.18;;;6.86;38.61
69219;BME280;56232;53.384;-2.732;2023-03-24T02:28:27;98707.24;;;6.25;38.57
69219;BME280;56232;53.384;-2.732;2023-03-24T02:30:58;98706.27;;;7.18;38.83
69219;BME280;56232;53.384;-2.732;2023-03-24T02:33:20;98708.96;;;5.96;38.87
69219;BME280;56232;53.384;-2.732;2023-03-24T02:35:46;98712.45;;;7.09;38.60
69219;BME280;56232;53.384;-2.732;2023-03-24T02:40:33;98706.66;;;6.56;38.51
69219;BME280;56232;53.384;-2.732;2023-03-24T02:43:01;98711.66;;;6.03;38.64
69219;BME280;56232;53.384;-2.732;2023-03-24T02:45:24;98706.58;;;7.05;38.69
69219;BME280;56232;53.384;-2.732;2023-03-24T02:47:52;98704.10;;;5.92;38.75
69219;BME280;56232;53.384;-2.732;2023-03-24T02:50:17;98709.63;;;7.31;38.62
69219;BME280;56232;53.384;-2.732;2023-03-24T02:52:39;98705.89;;;7.20;38.39
69219;BME280;56232;53.384;-2.732;2023-03-24T02:55:03;98702.17;;;6.92;38.20
69219;BME280;56232;53.384;-2.732;2023-03-24T02:57:31;98702.33;;;7.33;37.81
69219;BME280;56232;53.384;-2.732;2023-03-24T02:59:55;98708.13;;;7.47;37.63
69219;BME280;56232;53.384;-2.732;2023-03-24T03:02:20;98707.16;;;7.52;37.58
69219;BME280;56232;53.384;-2.732;2023-03-24T03:04:46;98708.48;;;7.64;37.36
69219;BME280;56232;53.384;-2.732;2023-03-24T03:07:09;98709.04;;;7.75;37.52
69219;BME280;56232;53.384;-2.732;2023-03-24T03:09:36;98702.99;;;7.92;37.42
69219;BME280;56232;53.384;-2.732;2023-03-24T03:12:03;98712.86;;;8.19;37.21
69219;BME280;56232;53.384;-2.732;2023-03-24T03:14:31;98713.16;;;8.35;37.13
69219;BME280;56232;53.384;-2.732;2023-03-24T03:16:54;98713.28;;;8.51;37.11
69219;BME280;56232;53.384;-2.732;2023-03-24T03:19:20;98709.48;;;8.59;37.05
69219;BME280;56232;53.384;-2.732;2023-03-24T03:21:45;98715.03;;;7.65;37.17
69219;BME280;56232;53.384;-2.732;2023-03-24T03:24:11;98711.21;;;8.30;37.09
69219;BME280;56232;53.384;-2.732;2023-03-24T03:26:35;98709.92;;;8.44;37.10
69219;BME280;56232;53.384;-2.732;2023-03-24T03:29:04;98713.20;;;8.70;37.36
69219;BME280;56232;53.384;-2.732;2023-03-24T03:31:31;98709.84;;;7.75;37.43
69219;BME280;56232;53.384;-2.732;2023-03-24T03:33:58;98711.84;;;8.12;37.56
69219;BME280;56232;53.384;-2.732;2023-03-24T03:36:22;98713.35;;;8.54;37.78
69219;BME280;56232;53.384;-2.732;2023-03-24T03:38:47;98703.06;;;8.04;37.82
69219;BME280;56232;53.384;-2.732;2023-03-24T03:41:08;98699.78;;;8.02;37.66
69219;BME280;56232;53.384;-2.732;2023-03-24T03:43:34;98712.34;;;8.50;37.75
69219;BME280;56232;53.384;-2.732;2023-03-24T03:46:02;98716.38;;;8.59;37.80
69219;BME280;56232;53.384;-2.732;2023-03-24T03:48:26;98712.95;;;8.62;37.65
69219;BME280;56232;53.384;-2.732;2023-03-24T03:50:51;98716.21;;;8.03;37.57
69219;BME280;56232;53.384;-2.732;2023-03-24T03:53:19;98713.50;;;7.85;37.72
69219;BME280;56232;53.384;-2.732;2023-03-24T03:55:42;98714.23;;;8.24;37.86
69219;BME280;56232;53.384;-2.732;2023-03-24T03:58:08;98714.46;;;7.85;37.78
69219;BME280;56232;53.384;-2.732;2023-03-24T04:00:34;98715.65;;;7.64;37.72
69219;BME280;56232;53.384;-2.732;2023-03-24T04:03:13;98718.93;;;7.45;37.75
69219;BME280;56232;53.384;-2.732;2023-03-24T04:05:27;98714.00;;;7.86;37.74
69219;BME280;56232;53.384;-2.732;2023-03-24T04:08:03;98722.54;;;8.21;37.94
69219;BME280;56232;53.384;-2.732;2023-03-24T04:10:20;98718.50;;;7.50;38.02
69219;BME280;56232;53.384;-2.732;2023-03-24T04:12:52;98720.08;;;7.69;37.94
69219;BME280;56232;53.384;-2.732;2023-03-24T04:17:45;98714.85;;;7.77;37.70
69219;BME280;56232;53.384;-2.732;2023-03-24T04:20:04;98716.57;;;7.67;37.68
69219;BME280;56232;53.384;-2.732;2023-03-24T04:22:28;98714.65;;;7.47;37.77
69219;BME280;56232;53.384;-2.732;2023-03-24T04:24:52;98716.73;;;7.37;37.83
69219;BME280;56232;53.384;-2.732;2023-03-24T04:27:22;98715.10;;;7.30;37.83
69219;BME280;56232;53.384;-2.732;2023-03-24T04:29:53;98718.90;;;7.29;37.92
69219;BME280;56232;53.384;-2.732;2023-03-24T04:32:10;98722.03;;;7.33;37.90
69219;BME280;56232;53.384;-2.732;2023-03-24T04:34:35;98723.15;;;7.30;37.86
69219;BME280;56232;53.384;-2.732;2023-03-24T04:37:01;98718.78;;;7.82;37.94
69219;BME280;56232;53.384;-2.732;2023-03-24T04:39:26;98720.67;;;7.76;38.03
69219;BME280;56232;53.384;-2.732;2023-03-24T04:41:50;98722.61;;;7.72;38.02
69219;BME280;56232;53.384;-2.732;2023-03-24T04:44:15;98723.10;;;7.66;38.10
69219;BME280;56232;53.384;-2.732;2023-03-24T04:46:41;98724.53;;;7.10;37.97
69219;BME280;56232;53.384;-2.732;2023-03-24T04:49:08;98725.42;;;7.01;37.90
69219;BME280;56232;53.384;-2.732;2023-03-24T04:51:32;98726.92;;;7.52;37.96
69219;BME280;56232;53.384;-2.732;2023-03-24T04:53:57;98730.03;;;6.84;37.97
69219;BME280;56232;53.384;-2.732;2023-03-24T04:56:30;98741.42;;;6.76;37.96
69219;BME280;56232;53.384;-2.732;2023-03-24T04:58:47;98738.03;;;6.82;37.91
69219;BME280;56232;53.384;-2.732;2023-03-24T05:01:15;98738.87;;;6.81;37.89
69219;BME280;56232;53.384;-2.732;2023-03-24T05:03:39;98734.02;;;6.76;37.99
69219;BME280;56232;53.384;-2.732;2023-03-24T05:06:05;98738.48;;;6.86;37.87
69219;BME280;56232;53.384;-2.732;2023-03-24T05:08:32;98742.80;;;7.98;37.74
69219;BME280;56232;53.384;-2.732;2023-03-24T05:10:56;98741.82;;;6.90;37.69
69219;BME280;56232;53.384;-2.732;2023-03-24T05:13:22;98751.32;;;6.85;37.76
69219;BME280;56232;53.384;-2.732;2023-03-24T05:15:47;98743.24;;;6.80;37.76
69219;BME280;56232;53.384;-2.732;2023-03-24T05:18:13;98759.21;;;7.76;37.78
69219;BME280;56232;53.384;-2.732;2023-03-24T05:20:39;98761.34;;;7.12;37.89
69219;BME280;56232;53.384;-2.732;2023-03-24T05:23:04;98765.80;;;6.51;37.87
69219;BME280;56232;53.384;-2.732;2023-03-24T05:25:31;98770.53;;;6.47;37.94
69219;BME280;56232;53.384;-2.732;2023-03-24T05:27:56;98772.48;;;7.07;37.95
69219;BME280;56232;53.384;-2.732;2023-03-24T05:30:22;98771.69;;;7.08;38.06
69219;BME280;56232;53.384;-2.732;2023-03-24T05:32:47;98775.22;;;6.67;37.80
69219;BME280;56232;53.384;-2.732;2023-03-24T05:35:13;98783.72;;;6.83;37.73
69219;BME280;56232;53.384;-2.732;2023-03-24T05:37:39;98783.10;;;7.57;37.76
69219;BME280;56232;53.384;-2.732;2023-03-24T05:40:06;98788.46;;;7.27;37.49
69219;BME280;56232;53.384;-2.732;2023-03-24T05:42:31;98788.07;;;7.46;37.40
69219;BME280;56232;53.384;-2.732;2023-03-24T05:44:56;98794.15;;;7.67;37.31
69219;BME280;56232;53.384;-2.732;2023-03-24T05:47:22;98789.71;;;7.31;37.26
69219;BME280;56232;53.384;-2.732;2023-03-24T05:49:47;98781.91;;;7.97;37.09
69219;BME280;56232;53.384;-2.732;2023-03-24T05:52:13;98779.21;;;7.97;36.99
69219;BME280;56232;53.384;-2.732;2023-03-24T05:54:39;98787.18;;;7.89;37.06
69219;BME280;56232;53.384;-2.732;2023-03-24T05:57:05;98778.24;;;7.98;37.10
69219;BME280;56232;53.384;-2.732;2023-03-24T05:59:31;98776.61;;;8.08;37.08
69219;BME280;56232;53.384;-2.732;2023-03-24T06:01:56;98782.32;;;8.18;37.01
69219;BME280;56232;53.384;-2.732;2023-03-24T06:04:22;98783.07;;;8.18;36.93
69219;BME280;56232;53.384;-2.732;2023-03-24T06:06:48;98779.41;;;8.01;37.10
69219;BME280;56232;53.384;-2.732;2023-03-24T06:09:13;98771.35;;;7.91;37.12
69219;BME280;56232;53.384;-2.732;2023-03-24T06:11:39;98771.59;;;7.81;37.23
69219;BME280;56232;53.384;-2.732;2023-03-24T06:14:10;98774.68;;;7.77;37.28
69219;BME280;56232;53.384;-2.732;2023-03-24T06:16:32;98772.61;;;7.61;37.40
69219;BME280;56232;53.384;-2.732;2023-03-24T06:18:56;98771.43;;;7.47;37.57
69219;BME280;56232;53.384;-2.732;2023-03-24T06:21:22;98775.96;;;7.94;37.53
69219;BME280;56232;53.384;-2.732;2023-03-24T06:23:48;98784.91;;;7.78;37.78
69219;BME280;56232;53.384;-2.732;2023-03-24T06:26:14;98769.35;;;7.18;37.87
69219;BME280;56232;53.384;-2.732;2023-03-24T06:28:39;98772.87;;;7.77;38.02
69219;BME280;56232;53.384;-2.732;2023-03-24T06:31:05;98780.98;;;7.16;38.03
69219;BME280;56232;53.384;-2.732;2023-03-24T06:33:31;98780.64;;;7.17;37.90
69219;BME280;56232;53.384;-2.732;2023-03-24T06:35:56;98782.74;;;7.29;37.89
69219;BME280;56232;53.384;-2.732;2023-03-24T06:38:22;98777.37;;;7.28;37.89
69219;BME280;56232;53.384;-2.732;2023-03-24T06:40:48;98785.11;;;7.27;38.09
69219;BME280;56232;53.384;-2.732;2023-03-24T06:43:13;98785.99;;;7.22;38.17
69219;BME280;56232;53.384;-2.732;2023-03-24T06:45:39;98793.70;;;7.23;38.17
69219;BME280;56232;53.384;-2.732;2023-03-24T06:48:04;98786.82;;;7.19;38.05
69219;BME280;56232;53.384;-2.732;2023-03-24T06:50:31;98775.11;;;7.40;37.83
69219;BME280;56232;53.384;-2.732;2023-03-24T06:52:56;98786.48;;;7.51;37.69
69219;BME280;56232;53.384;-2.732;2023-03-24T06:55:21;98793.36;;;7.57;37.73
69219;BME280;56232;53.384;-2.732;2023-03-24T06:57:47;98788.90;;;8.11;37.84
69219;BME280;56232;53.384;-2.732;2023-03-24T07:00:14;98792.48;;;7.14;37.72
69219;BME280;56232;53.384;-2.732;2023-03-24T07:02:39;98789.69;;;7.99;37.55
69219;BME280;56232;53.384;-2.732;2023-03-24T07:05:05;98799.80;;;8.63;37.13
69219;BME280;56232;53.384;-2.732;2023-03-24T07:07:31;98797.70;;;8.97;36.64
69219;BME280;56232;53.384;-2.732;2023-03-24T07:09:56;98796.35;;;10.13;36.06
69219;BME280;56232;53.384;-2.732;2023-03-24T07:12:27;98792.22;;;9.60;35.82
69219;BME280;56232;53.384;-2.732;2023-03-24T07:14:47;98789.19;;;8.80;35.74
69219;BME280;56232;53.384;-2.732;2023-03-24T07:17:13;98785.64;;;10.04;35.55
69219;BME280;56232;53.384;-2.732;2023-03-24T07:19:38;98785.98;;;10.15;35.79
69219;BME280;56232;53.384;-2.732;2023-03-24T07:22:03;98790.97;;;10.35;35.72
69219;BME280;56232;53.384;-2.732;2023-03-24T07:24:30;98786.03;;;9.88;35.74
69219;BME280;56232;53.384;-2.732;2023-03-24T07:26:54;98788.98;;;10.85;35.22
69219;BME280;56232;53.384;-2.732;2023-03-24T07:29:20;98786.83;;;12.28;33.61
69219;BME280;56232;53.384;-2.732;2023-03-24T07:31:46;98789.11;;;14.04;31.93
69219;BME280;56232;53.384;-2.732;2023-03-24T07:34:12;98785.60;;;13.44;31.74
69219;BME280;56232;53.384;-2.732;2023-03-24T07:36:37;98791.78;;;12.78;31.78
69219;BME280;56232;53.384;-2.732;2023-03-24T07:39:03;98799.76;;;12.45;32.09
69219;BME280;56232;53.384;-2.732;2023-03-24T07:41:29;98795.22;;;11.82;33.51
69219;BME280;56232;53.384;-2.732;2023-03-24T07:43:54;98794.92;;;11.68;33.31
69219;BME280;56232;53.384;-2.732;2023-03-24T07:46:20;98804.75;;;10.72;34.38
69219;BME280;56232;53.384;-2.732;2023-03-24T07:48:45;98805.80;;;10.11;34.98
69219;BME280;56232;53.384;-2.732;2023-03-24T07:51:11;98803.83;;;10.58;34.29
69219;BME280;56232;53.384;-2.732;2023-03-24T07:53:37;98797.09;;;12.12;33.11
69219;BME280;56232;53.384;-2.732;2023-03-24T07:56:03;98802.91;;;12.66;32.84
69219;BME280;56232;53.384;-2.732;2023-03-24T07:58:29;98800.32;;;13.53;31.92
69219;BME280;56232;53.384;-2.732;2023-03-24T08:00:54;98800.78;;;14.63;31.37
69219;BME280;56232;53.384;-2.732;2023-03-24T08:03:19;98798.64;;;14.41;30.72
69219;BME280;56232;53.384;-2.732;2023-03-24T08:05:45;98802.30;;;14.38;29.79
69219;BME280;56232;53.384;-2.732;2023-03-24T08:08:11;98801.37;;;14.41;30.82
69219;BME280;56232;53.384;-2.732;2023-03-24T08:10:36;98801.78;;;14.88;31.11
69219;BME280;56232;53.384;-2.732;2023-03-24T08:13:02;98800.68;;;15.36;30.51
69219;BME280;56232;53.384;-2.732;2023-03-24T08:15:33;98801.65;;;14.69;31.35
69219;BME280;56232;53.384;-2.732;2023-03-24T08:17:53;98798.94;;;14.50;31.18
69219;BME280;56232;53.384;-2.732;2023-03-24T08:20:19;98795.36;;;13.20;31.64
69219;BME280;56232;53.384;-2.732;2023-03-24T08:22:50;98801.95;;;15.59;30.39
69219;BME280;56232;53.384;-2.732;2023-03-24T08:25:11;98791.25;;;17.23;28.74
69219;BME280;56232;53.384;-2.732;2023-03-24T08:27:35;98789.26;;;17.94;28.59
69219;BME280;56232;53.384;-2.732;2023-03-24T08:30:01;98794.40;;;18.36;27.73
69219;BME280;56232;53.384;-2.732;2023-03-24T08:32:26;98796.39;;;18.93;26.61
69219;BME280;56232;53.384;-2.732;2023-03-24T08:34:52;98801.56;;;19.41;27.10
69219;BME280;56232;53.384;-2.732;2023-03-24T08:37:17;98804.99;;;20.27;26.55
69219;BME280;56232;53.384;-2.732;2023-03-24T08:39:43;98804.94;;;20.54;25.40
69219;BME280;56232;53.384;-2.732;2023-03-24T08:42:09;98806.11;;;20.81;24.77
69219;BME280;56232;53.384;-2.732;2023-03-24T08:44:34;98811.05;;;20.63;25.44
69219;BME280;56232;53.384;-2.732;2023-03-24T08:47:05;98815.84;;;19.89;25.57
69219;BME280;56232;53.384;-2.732;2023-03-24T08:49:25;98818.75;;;19.42;26.15
69219;BME280;56232;53.384;-2.732;2023-03-24T08:51:51;98812.34;;;19.33;27.01
69219;BME280;56232;53.384;-2.732;2023-03-24T08:54:16;98816.94;;;17.10;27.89
69219;BME280;56232;53.384;-2.732;2023-03-24T08:56:42;98823.64;;;15.50;28.45
69219;BME280;56232;53.384;-2.732;2023-03-24T08:59:07;98825.49;;;15.77;29.74
69219;BME280;56232;53.384;-2.732;2023-03-24T09:01:33;98828.93;;;16.05;28.77
69219;BME280;56232;53.384;-2.732;2023-03-24T09:03:59;98824.87;;;16.18;29.35
69219;BME280;56232;53.384;-2.732;2023-03-24T09:06:24;98830.46;;;16.31;29.99
69219;BME280;56232;53.384;-2.732;2023-03-24T09:08:50;98839.37;;;14.88;30.97
69219;BME280;56232;53.384;-2.732;2023-03-24T09:11:17;98839.05;;;14.21;30.94
69219;BME280;56232;53.384;-2.732;2023-03-24T09:13:41;98844.07;;;14.71;30.89
69219;BME280;56232;53.384;-2.732;2023-03-24T09:16:07;98843.23;;;14.11;31.64
69219;BME280;56232;53.384;-2.732;2023-03-24T09:18:32;98848.01;;;14.14;32.69
69219;BME280;56232;53.384;-2.732;2023-03-24T09:20:58;98846.38;;;13.08;33.05
69219;BME280;56232;53.384;-2.732;2023-03-24T09:23:24;98844.14;;;13.13;32.72
69219;BME280;56232;53.384;-2.732;2023-03-24T09:25:50;98842.53;;;14.93;32.10
69219;BME280;56232;53.384;-2.732;2023-03-24T09:28:15;98838.41;;;15.47;30.53
69219;BME280;56232;53.384;-2.732;2023-03-24T09:30:41;98845.30;;;15.37;30.39
69219;BME280;56232;53.384;-2.732;2023-03-24T09:33:06;98843.12;;;15.90;31.06
69219;BME280;56232;53.384;-2.732;2023-03-24T09:35:32;98853.06;;;15.75;31.57
69219;BME280;56232;53.384;-2.732;2023-03-24T09:37:57;98841.64;;;14.52;32.37
69219;BME280;56232;53.384;-2.732;2023-03-24T09:40:26;98835.27;;;14.58;30.98
69219;BME280;56232;53.384;-2.732;2023-03-24T09:42:58;98843.11;;;13.87;31.79
69219;BME280;56232;53.384;-2.732;2023-03-24T09:45:17;98849.38;;;13.26;32.84
69219;BME280;56232;53.384;-2.732;2023-03-24T09:47:44;98848.19;;;13.83;33.23
69219;BME280;56232;53.384;-2.732;2023-03-24T09:50:11;98857.26;;;12.66;33.14
69219;BME280;56232;53.384;-2.732;2023-03-24T09:52:34;98855.66;;;13.27;32.68
69219;BME280;56232;53.384;-2.732;2023-03-24T09:54:58;98847.51;;;13.74;33.18
69219;BME280;56232;53.384;-2.732;2023-03-24T09:57:26;98844.96;;;13.56;33.26
69219;BME280;56232;53.384;-2.732;2023-03-24T09:59:48;98849.64;;;14.65;33.15
69219;BME280;56232;53.384;-2.732;2023-03-24T10:02:15;98837.58;;;13.88;33.01
69219;BME280;56232;53.384;-2.732;2023-03-24T10:04:39;98849.22;;;14.16;32.82
69219;BME280;56232;53.384;-2.732;2023-03-24T10:07:08;98851.02;;;14.81;33.44
69219;BME280;56232;53.384;-2.732;2023-03-24T10:09:32;98845.64;;;14.50;33.92
69219;BME280;56232;53.384;-2.732;2023-03-24T10:12:10;98846.75;;;14.15;33.31
69219;BME280;56232;53.384;-2.732;2023-03-24T10:14:31;98841.66;;;15.21;32.12
69219;BME280;56232;53.384;-2.732;2023-03-24T10:16:51;98847.78;;;15.25;31.24
69219;BME280;56232;53.384;-2.732;2023-03-24T10:19:21;98848.40;;;15.86;31.07
69219;BME280;56232;53.384;-2.732;2023-03-24T10:21:39;98842.87;;;15.42;31.37
69219;BME280;56232;53.384;-2.732;2023-03-24T10:24:09;98837.41;;;16.33;31.71
69219;BME280;56232;53.384;-2.732;2023-03-24T10:26:36;98837.19;;;16.71;31.03
69219;BME280;56232;53.384;-2.732;2023-03-24T10:29:06;98839.51;;;16.67;30.95
69219;BME280;56232;53.384;-2.732;2023-03-24T10:31:27;98830.06;;;16.26;31.25
69219;BME280;56232;53.384;-2.732;2023-03-24T10:33:46;98826.08;;;16.80;31.00
69219;BME280;56232;53.384;-2.732;2023-03-24T10:36:13;98825.47;;;17.45;31.25
69219;BME280;56232;53.384;-2.732;2023-03-24T10:38:37;98827.81;;;16.71;31.12
69219;BME280;56232;53.384;-2.732;2023-03-24T10:41:03;98833.43;;;16.89;30.50
69219;BME280;56232;53.384;-2.732;2023-03-24T10:43:29;98835.17;;;16.60;30.39
69219;BME280;56232;53.384;-2.732;2023-03-24T10:45:55;98828.03;;;17.88;31.35
69219;BME280;56232;53.384;-2.732;2023-03-24T10:50:45;98836.02;;;16.51;31.64
69219;BME280;56232;53.384;-2.732;2023-03-24T10:53:16;98824.31;;;16.78;30.82
69219;BME280;56232;53.384;-2.732;2023-03-24T10:55:37;98828.23;;;15.47;33.03
69219;BME280;56232;53.384;-2.732;2023-03-24T10:58:02;98827.01;;;15.80;32.44
69219;BME280;56232;53.384;-2.732;2023-03-24T11:00:29;98825.03;;;15.53;33.38
69219;BME280;56232;53.384;-2.732;2023-03-24T11:02:55;98835.17;;;16.11;32.84
69219;BME280;56232;53.384;-2.732;2023-03-24T11:05:20;98828.93;;;15.92;33.45
69219;BME280;56232;53.384;-2.732;2023-03-24T11:07:46;98834.82;;;15.20;33.76
69219;BME280;56232;53.384;-2.732;2023-03-24T11:10:14;98832.31;;;15.10;34.51
69219;BME280;56232;53.384;-2.732;2023-03-24T11:12:37;98837.72;;;14.47;32.48
69219;BME280;56232;53.384;-2.732;2023-03-24T11:17:27;98835.41;;;13.75;32.71
69219;BME280;56232;53.384;-2.732;2023-03-24T11:19:54;98838.38;;;14.31;35.18
69219;BME280;56232;53.384;-2.732;2023-03-24T11:22:18;98837.47;;;13.74;34.95
69219;BME280;56232;53.384;-2.732;2023-03-24T11:24:48;98836.37;;;13.54;35.47
69219;BME280;56232;53.384;-2.732;2023-03-24T11:27:12;98840.17;;;14.22;35.01
69219;BME280;56232;53.384;-2.732;2023-03-24T11:29:39;98838.70;;;15.48;34.53
69219;BME280;56232;53.384;-2.732;2023-03-24T11:32:02;98841.94;;;13.96;33.21
69219;BME280;56232;53.384;-2.732;2023-03-24T11:34:29;98837.26;;;16.43;33.89
69219;BME280;56232;53.384;-2.732;2023-03-24T11:36:52;98836.44;;;14.15;34.85
69219;BME280;56232;53.384;-2.732;2023-03-24T11:39:20;98834.29;;;14.55;34.98
69219;BME280;56232;53.384;-2.732;2023-03-24T11:41:53;98831.38;;;14.07;34.78
69219;BME280;56232;53.384;-2.732;2023-03-24T11:44:15;98834.27;;;14.80;34.51
69219;BME280;56232;53.384;-2.732;2023-03-24T11:46:35;98832.55;;;15.06;35.33
69219;BME280;56232;53.384;-2.732;2023-03-24T11:49:00;98830.59;;;14.76;34.10
69219;BME280;56232;53.384;-2.732;2023-03-24T11:51:29;98829.48;;;15.22;33.54
69219;BME280;56232;53.384;-2.732;2023-03-24T11:53:52;98837.27;;;15.35;34.16
69219;BME280;56232;53.384;-2.732;2023-03-24T11:56:20;98842.13;;;14.62;35.24
69219;BME280;56232;53.384;-2.732;2023-03-24T11:58:45;98844.18;;;15.27;34.08
69219;BME280;56232;53.384;-2.732;2023-03-24T12:01:11;98832.38;;;15.24;34.23
69219;BME280;56232;53.384;-2.732;2023-03-24T12:03:49;98834.51;;;15.65;34.24
69219;BME280;56232;53.384;-2.732;2023-03-24T12:06:09;98845.00;;;14.76;35.04
69219;BME280;56232;53.384;-2.732;2023-03-24T12:08:36;98831.26;;;14.69;33.93
69219;BME280;56232;53.384;-2.732;2023-03-24T12:11:00;98836.79;;;15.18;33.29
69219;BME280;56232;53.384;-2.732;2023-03-24T12:13:20;98821.77;;;15.50;34.31
69219;BME280;56232;53.384;-2.732;2023-03-24T12:15:52;98835.10;;;15.38;34.87
69219;BME280;56232;53.384;-2.732;2023-03-24T12:18:18;98824.58;;;15.44;34.72
69219;BME280;56232;53.384;-2.732;2023-03-24T12:20:36;98818.18;;;15.50;34.75
69219;BME280;56232;53.384;-2.732;2023-03-24T12:23:01;98802.84;;;15.57;34.58
69219;BME280;56232;53.384;-2.732;2023-03-24T12:25:35;98816.31;;;14.73;34.71
69219;BME280;56232;53.384;-2.732;2023-03-24T12:27:58;98826.28;;;15.78;34.87
69219;BME280;56232;53.384;-2.732;2023-03-24T12:30:19;98812.69;;;15.49;35.05
69219;BME280;56232;53.384;-2.732;2023-03-24T12:32:48;98818.45;;;15.41;35.64
69219;BME280;56232;53.384;-2.732;2023-03-24T12:37:39;98812.67;;;15.77;34.80
69219;BME280;56232;53.384;-2.732;2023-03-24T12:40:10;98803.79;;;16.04;33.88
69219;BME280;56232;53.384;-2.732;2023-03-24T12:42:24;98802.06;;;15.84;36.30
69219;BME280;56232;53.384;-2.732;2023-03-24T12:47:26;98800.74;;;15.95;35.80
69219;BME280;56232;53.384;-2.732;2023-03-24T12:49:49;98789.81;;;16.16;35.43
69219;BME280;56232;53.384;-2.732;2023-03-24T12:52:16;98789.56;;;15.10;36.21
69219;BME280;56232;53.384;-2.732;2023-03-24T12:54:35;98778.90;;;16.44;34.75
69219;BME280;56232;53.384;-2.732;2023-03-24T12:57:00;98783.54;;;16.14;35.17
69219;BME280;56232;53.384;-2.732;2023-03-24T12:59:29;98781.12;;;16.05;34.19
69219;BME280;56232;53.384;-2.732;2023-03-24T13:02:07;98790.32;;;16.87;34.12
69219;BME280;56232;53.384;-2.732;2023-03-24T13:04:17;98782.13;;;17.51;34.19